Time;durP1;ratioP1;P1;durP2;ratioP2;P2;SDS_P1;SDS_P2;PMS_P1;PMS_P2;Temp;Humidity;BMP_temperature;BMP_pressure;BME280_temperature;BME280_humidity;BME280_pressure;Samples;Min_cycle;Max_cycle;Signal;HPM_P1;HPM_P2
2022/04/04 00:01:51;;;;;;;4.65;4.00;;;;;;;10.33;32.63;98775.84;1756211;81;20930;-67
2022/04/04 00:04:18;;;;;;;5.28;3.90;;;;;;;10.40;32.49;98777.58;1755753;81;20887;-67
2022/04/04 00:06:47;;;;;;;4.83;4.00;;;;;;;10.36;32.57;98778.14;1754129;81;21441;-67
2022/04/04 00:09:15;;;;;;;4.37;3.98;;;;;;;9.85;33.29;98771.91;1755100;81;21256;-67
2022/04/04 00:11:43;;;;;;;4.40;3.67;;;;;;;9.71;33.57;98774.04;1755551;81;20934;-66
2022/04/04 00:14:10;;;;;;;5.00;3.50;;;;;;;9.69;33.67;98780.05;1754802;81;21030;-64
2022/04/04 00:16:38;;;;;;;5.35;4.35;;;;;;;9.70;33.70;98778.52;1747337;81;20982;-67
2022/04/04 00:19:06;;;;;;;5.67;5.08;;;;;;;9.82;33.50;98771.77;1756286;81;20871;-65
2022/04/04 00:21:36;;;;;;;4.95;4.47;;;;;;;9.81;33.67;98777.25;1755925;81;21248;-65
2022/04/04 00:24:04;;;;;;;4.50;3.92;;;;;;;9.91;33.45;98775.98;1755646;81;20898;-67
2022/04/04 00:26:33;;;;;;;4.85;4.22;;;;;;;9.95;33.45;98772.46;1754403;81;21547;-65
2022/04/04 00:29:01;;;;;;;6.42;4.50;;;;;;;9.96;33.49;98772.77;1756306;81;20982;-67
2022/04/04 00:31:28;;;;;;;6.28;4.67;;;;;;;9.99;33.49;98783.53;1756522;81;21488;-66
2022/04/04 00:33:56;;;;;;;6.75;4.80;;;;;;;10.07;33.40;98786.09;1756197;81;21276;-64
2022/04/04 00:36:25;;;;;;;4.53;4.12;;;;;;;9.82;33.73;98778.91;1755062;81;21023;-65
2022/04/04 00:38:52;;;;;;;6.53;4.30;;;;;;;9.78;33.89;98783.75;1755408;81;21042;-63
2022/04/04 00:41:19;;;;;;;5.83;5.22;;;;;;;9.69;34.06;98785.36;1755797;81;21009;-66
2022/04/04 00:43:52;;;;;;;5.72;4.55;;;;;;;9.72;34.10;98789.81;1747141;81;20899;-65
2022/04/04 00:46:19;;;;;;;5.85;4.75;;;;;;;9.68;34.17;98791.16;1755220;81;21134;-68
2022/04/04 00:48:46;;;;;;;5.58;4.92;;;;;;;9.70;34.25;98786.98;1755658;81;20852;-67
2022/04/04 00:51:13;;;;;;;6.53;5.20;;;;;;;9.74;34.26;98789.13;1756673;81;21524;-65
2022/04/04 00:53:41;;;;;;;6.55;5.20;;;;;;;9.79;34.26;98793.39;1753869;81;21006;-65
2022/04/04 00:56:11;;;;;;;6.33;5.42;;;;;;;9.79;34.26;98789.40;1752749;81;20883;-64
2022/04/04 00:58:38;;;;;;;7.92;5.70;;;;;;;9.78;34.33;98787.73;1755761;81;21268;-64
2022/04/04 01:01:05;;;;;;;7.12;5.58;;;;;;;9.78;34.33;98791.72;1755610;81;20993;-65
2022/04/04 01:03:33;;;;;;;7.25;5.22;;;;;;;9.83;34.25;98792.00;1756004;80;20893;-68
2022/04/04 01:06:00;;;;;;;9.65;7.17;;;;;;;9.78;34.35;98798.36;1752395;81;21013;-67
2022/04/04 01:08:28;;;;;;;8.37;5.30;;;;;;;10.00;34.30;98791.83;1756011;81;20895;-67
2022/04/04 01:10:55;;;;;;;7.65;6.00;;;;;;;9.76;34.52;98795.56;1755027;81;21230;-68
2022/04/04 01:13:23;;;;;;;6.80;6.00;;;;;;;11.43;32.02;98786.53;1755820;81;20919;-67
2022/04/04 01:15:51;;;;;;;8.88;6.05;;;;;;;11.89;31.23;98785.05;1753296;81;20934;-66
2022/04/04 01:18:19;;;;;;;7.33;5.90;;;;;;;10.62;32.86;98793.08;1755982;81;21401;-68
2022/04/04 01:20:46;;;;;;;8.23;6.15;;;;;;;10.08;33.91;98795.23;1756450;81;20939;-68
2022/04/04 01:23:14;;;;;;;6.67;5.28;;;;;;;10.22;33.88;98791.76;1756670;81;21432;-67
2022/04/04 01:25:42;;;;;;;9.18;6.35;;;;;;;10.06;34.10;98795.09;1665376;83;21058;-65
2022/04/04 01:28:10;;;;;;;10.05;5.80;;;;;;;10.03;34.18;98793.63;1751130;81;21507;-66
2022/04/04 01:30:38;;;;;;;9.15;6.95;;;;;;;10.00;34.23;98794.49;1755640;81;20998;-65
2022/04/04 01:33:05;;;;;;;7.00;6.17;;;;;;;9.96;34.31;98790.03;1756336;81;20922;-65
2022/04/04 01:35:33;;;;;;;7.78;6.42;;;;;;;9.91;34.37;98793.25;1754699;81;22109;-64
2022/04/04 01:38:01;;;;;;;8.50;6.17;;;;;;;9.91;34.42;98790.59;1755005;81;20982;-68
2022/04/04 01:40:30;;;;;;;7.80;6.85;;;;;;;9.81;34.60;98795.34;1757007;81;21069;-66
2022/04/04 01:42:57;;;;;;;7.58;6.67;;;;;;;9.72;34.85;98799.61;1754288;81;20959;-64
2022/04/04 01:48:12;;;;;;;7.97;6.15;;;;;;;10.00;34.69;98798.47;1755826;81;21096;-66
2022/04/04 01:50:42;;;;;;;8.00;6.95;;;;;;;9.86;34.87;98802.77;1755508;81;20943;-67
2022/04/04 01:53:29;;;;;;;9.00;6.87;;;;;;;9.83;34.99;98803.95;1756377;81;20914;-67
2022/04/04 01:55:58;;;;;;;;;;;;;;;10.08;34.74;98803.70;1758296;81;20975;-68
2022/04/04 01:58:26;;;;;;;7.08;5.97;;;;;;;10.08;34.80;98804.53;1719143;83;20133;-66
2022/04/04 02:00:56;;;;;;;9.50;7.20;;;;;;;10.12;34.83;98809.83;1755997;81;21260;-67
2022/04/04 02:03:26;;;;;;;9.10;7.55;;;;;;;10.08;34.92;98800.55;1756531;81;20931;-67
2022/04/04 02:05:53;;;;;;;11.20;7.92;;;;;;;10.02;35.06;98807.08;1753757;81;21104;-67
2022/04/04 02:08:21;;;;;;;9.08;6.83;;;;;;;9.97;35.17;98798.84;1755213;81;20903;-68
2022/04/04 02:10:48;;;;;;;8.95;7.37;;;;;;;9.94;35.28;98802.19;1755741;81;20891;-67
2022/04/04 02:13:16;;;;;;;8.95;7.60;;;;;;;9.96;35.36;98807.84;1756184;81;21280;-67
2022/04/04 02:15:43;;;;;;;8.95;6.62;;;;;;;9.96;35.37;98803.84;1754122;81;21033;-64
2022/04/04 02:18:12;;;;;;;11.38;7.58;;;;;;;9.94;35.40;98805.34;1755509;81;20939;-64
2022/04/04 02:20:39;;;;;;;8.90;7.58;;;;;;;9.96;35.44;98806.50;1755624;81;21034;-65
2022/04/04 02:23:07;;;;;;;8.10;7.05;;;;;;;9.92;35.54;98806.86;1754651;81;20879;-66
2022/04/04 02:25:35;;;;;;;8.68;7.25;;;;;;;9.97;35.50;98810.80;1753841;81;21125;-64
2022/04/04 02:28:03;;;;;;;8.83;7.53;;;;;;;9.99;35.51;98812.26;1756407;80;21484;-65
2022/04/04 02:30:31;;;;;;;9.43;7.65;;;;;;;10.02;35.50;98809.73;1755353;81;21083;-67
2022/04/04 02:32:58;;;;;;;9.15;7.62;;;;;;;9.98;35.61;98819.09;1754759;81;20982;-63
2022/04/04 02:35:26;;;;;;;9.23;7.87;;;;;;;9.96;35.66;98823.78;1755872;81;21045;-64
2022/04/04 02:37:54;;;;;;;9.10;8.13;;;;;;;9.96;35.73;98821.12;1756061;81;22546;-66
2022/04/04 02:40:21;;;;;;;9.03;8.03;;;;;;;9.93;35.82;98823.64;1754869;81;21113;-67
2022/04/04 02:42:50;;;;;;;7.92;7.12;;;;;;;9.91;35.94;98821.14;1756318;81;21493;-66
2022/04/04 02:45:17;;;;;;;9.73;8.05;;;;;;;9.97;35.92;98820.09;1755396;81;20970;-68
2022/04/04 02:47:45;;;;;;;9.28;8.28;;;;;;;9.97;35.97;98822.25;1756409;81;21060;-67
2022/04/04 02:50:12;;;;;;;8.88;7.97;;;;;;;10.01;35.92;98827.51;1756349;81;22290;-68
2022/04/04 02:52:40;;;;;;;9.03;7.85;;;;;;;10.04;35.96;98828.48;1720709;81;20948;-68
2022/04/04 02:57:55;;;;;;;9.85;7.83;;;;;;;9.80;36.42;98820.25;1756816;81;20967;-67
2022/04/04 03:00:24;;;;;;;8.80;6.87;;;;;;;9.78;36.58;98830.73;1755095;81;21916;-65
2022/04/04 03:02:54;;;;;;;7.85;6.78;;;;;;;10.00;36.33;98831.20;1756247;81;21238;-69
2022/04/04 03:05:21;;;;;;;7.60;6.80;;;;;;;10.05;36.30;98831.47;1742787;81;20903;-65
2022/04/04 03:07:49;;;;;;;8.38;7.12;;;;;;;10.09;36.32;98830.61;1756433;81;21042;-67
2022/04/04 03:10:16;;;;;;;9.25;6.85;;;;;;;10.11;36.29;98832.58;1756680;80;20915;-69
2022/04/04 03:12:47;;;;;;;8.85;7.53;;;;;;;10.13;36.33;98830.09;1756437;81;20883;-65
2022/04/04 03:15:21;;;;;;;8.55;6.50;;;;;;;10.18;36.30;98829.53;1754675;81;21232;-64
2022/04/04 03:17:54;;;;;;;8.43;6.40;;;;;;;10.04;36.53;98835.13;1756163;81;20985;-67
2022/04/04 03:20:23;;;;;;;7.90;6.78;;;;;;;10.05;36.57;98823.99;1756814;81;21044;-65
2022/04/04 03:22:56;;;;;;;8.45;6.47;;;;;;;10.00;36.74;98829.03;1756265;81;21452;-65
2022/04/04 03:25:23;;;;;;;6.42;5.78;;;;;;;10.28;36.36;98826.09;1755991;81;21001;-66
2022/04/04 03:27:53;;;;;;;7.08;6.37;;;;;;;10.13;36.58;98821.28;1756384;81;20934;-64
2022/04/04 03:30:27;;;;;;;7.62;6.47;;;;;;;10.33;36.40;98822.38;1756465;81;20966;-65
2022/04/04 03:32:55;;;;;;;7.95;6.25;;;;;;;10.40;36.25;98832.61;1756182;81;21458;-66
2022/04/04 03:35:22;;;;;;;8.25;6.85;;;;;;;10.44;36.16;98832.05;1753082;81;20981;-63
2022/04/04 03:37:51;;;;;;;7.40;6.45;;;;;;;10.25;36.42;98830.44;1752554;81;20959;-68
2022/04/04 03:40:19;;;;;;;9.63;6.30;;;;;;;10.22;36.55;98831.62;1755842;81;21199;-68
2022/04/04 03:42:48;;;;;;;8.20;6.20;;;;;;;10.19;36.67;98837.84;1755309;81;21417;-66
2022/04/04 03:45:15;;;;;;;8.05;6.70;;;;;;;10.21;36.59;98837.98;1753332;81;20887;-66
2022/04/04 03:47:44;;;;;;;8.95;6.70;;;;;;;10.13;36.73;98835.41;1754876;81;20863;-65
2022/04/04 03:50:12;;;;;;;9.53;7.78;;;;;;;10.16;36.74;98835.54;1756372;81;20940;-67
2022/04/04 03:52:41;;;;;;;10.18;7.28;;;;;;;10.16;36.78;98840.86;1709843;82;21915;-68
2022/04/04 03:55:09;;;;;;;10.85;7.87;;;;;;;10.18;36.78;98835.67;1714046;82;20933;-65
2022/04/04 03:57:37;;;;;;;12.65;8.33;;;;;;;10.25;36.68;98838.41;1755272;81;20950;-64
2022/04/04 04:00:06;;;;;;;11.10;8.50;;;;;;;10.25;36.75;98835.75;1754937;81;21445;-65
2022/04/04 04:02:34;;;;;;;10.28;8.08;;;;;;;10.29;36.69;98839.71;1755838;81;21006;-69
2022/04/04 04:05:03;;;;;;;9.98;8.40;;;;;;;10.32;36.68;98839.35;1755252;81;21548;-67
2022/04/04 04:07:31;;;;;;;10.70;8.63;;;;;;;10.37;36.56;98839.62;1755514;81;20979;-66
2022/04/04 04:09:58;;;;;;;11.55;8.45;;;;;;;10.37;36.55;98839.12;1746409;81;20954;-64
2022/04/04 04:12:27;;;;;;;9.15;7.55;;;;;;;10.39;36.52;98846.41;1690798;84;21440;-64
2022/04/04 04:14:55;;;;;;;9.38;8.38;;;;;;;10.43;36.48;98844.18;1746452;81;20894;-67
2022/04/04 04:17:24;;;;;;;11.60;8.40;;;;;;;10.40;36.53;98845.38;1755974;81;21042;-67
2022/04/04 04:22:38;;;;;;;11.63;8.45;;;;;;;10.74;35.99;98846.64;1756627;81;20926;-66
2022/04/04 04:25:06;;;;;;;11.30;8.43;;;;;;;10.85;35.74;98845.64;1744827;81;20918;-64
2022/04/04 04:27:34;;;;;;;12.45;7.85;;;;;;;10.92;35.63;98845.73;1691224;84;21052;-64
2022/04/04 04:30:01;;;;;;;12.20;8.30;;;;;;;10.91;35.58;98848.89;1755355;81;21274;-68
2022/04/04 04:32:29;;;;;;;9.65;7.35;;;;;;;10.95;35.58;98848.82;1756760;81;21079;-64
2022/04/04 04:34:57;;;;;;;10.20;7.87;;;;;;;10.99;35.56;98848.78;1744987;80;21451;-66
2022/04/04 04:37:24;;;;;;;10.78;8.25;;;;;;;11.05;35.47;98851.20;1740841;81;20970;-65
2022/04/04 04:39:51;;;;;;;10.00;7.95;;;;;;;11.16;35.29;98854.17;1740848;81;20997;-66
2022/04/04 04:42:18;;;;;;;12.78;7.90;;;;;;;11.10;35.49;98852.80;1740885;81;21272;-66
2022/04/04 04:44:46;;;;;;;10.32;7.72;;;;;;;11.12;35.33;98857.41;1739843;82;21010;-67
2022/04/04 04:47:15;;;;;;;9.20;7.17;;;;;;;11.11;35.40;98857.91;1715389;81;20954;-65
2022/04/04 04:49:43;;;;;;;9.13;7.50;;;;;;;11.15;35.31;98861.86;1729949;81;20983;-66
2022/04/04 04:52:11;;;;;;;8.40;7.12;;;;;;;11.21;35.25;98862.12;1738104;81;20942;-67
2022/04/04 04:54:38;;;;;;;9.15;7.67;;;;;;;11.28;35.31;98865.67;1729058;81;21224;-68
2022/04/04 04:57:06;;;;;;;10.20;7.75;;;;;;;11.43;35.13;98865.92;1740616;81;21043;-69
2022/04/04 04:59:33;;;;;;;9.98;7.17;;;;;;;11.54;35.05;98867.26;1741002;81;21446;-68
2022/04/04 05:02:00;;;;;;;11.22;7.45;;;;;;;11.80;34.98;98858.70;1740521;81;20977;-68
2022/04/04 05:04:27;;;;;;;11.97;7.20;;;;;;;12.09;34.79;98856.67;1740882;81;20890;-67
2022/04/04 05:06:54;;;;;;;9.73;7.35;;;;;;;12.44;34.48;98861.99;1740550;81;21244;-67
2022/04/04 05:09:22;;;;;;;11.08;8.20;;;;;;;12.79;34.09;98867.63;1740481;81;20937;-67
2022/04/04 05:11:50;;;;;;;10.03;8.20;;;;;;;13.11;33.45;98863.47;1740703;81;21012;-68
2022/04/04 05:14:17;;;;;;;9.78;8.05;;;;;;;13.42;33.05;98869.09;1740156;82;20995;-67
2022/04/04 05:16:46;;;;;;;10.95;8.45;;;;;;;13.72;32.40;98869.01;1740388;81;21064;-64
2022/04/04 05:19:19;;;;;;;12.55;10.32;;;;;;;13.95;32.05;98868.59;1740886;81;21222;-68
2022/04/04 05:21:48;;;;;;;12.13;10.80;;;;;;;14.10;31.79;98876.70;1740600;81;20978;-64
2022/04/04 05:24:16;;;;;;;12.68;10.23;;;;;;;14.26;31.53;98877.33;1740530;81;20914;-64
2022/04/04 05:26:43;;;;;;;11.15;9.95;;;;;;;14.32;31.18;98873.33;1740179;81;21002;-69
2022/04/04 05:29:11;;;;;;;11.53;9.25;;;;;;;14.50;30.70;98872.66;1740949;81;20950;-66
2022/04/04 05:31:38;;;;;;;14.35;10.03;;;;;;;14.63;30.36;98869.44;1728896;81;21221;-64
2022/04/04 05:34:05;;;;;;;12.68;9.45;;;;;;;14.65;30.40;98869.25;1744045;81;20855;-67
2022/04/04 05:36:33;;;;;;;12.23;9.53;;;;;;;14.66;30.27;98873.04;1752800;81;20976;-66
2022/04/04 05:39:01;;;;;;;14.28;10.50;;;;;;;14.71;30.12;98873.73;1756482;81;20922;-65
2022/04/04 05:41:29;;;;;;;17.87;12.85;;;;;;;14.47;30.30;98874.45;1756194;81;21104;-63
2022/04/04 05:43:56;;;;;;;16.10;11.03;;;;;;;14.67;30.17;98873.87;1755782;81;21469;-67
2022/04/04 05:46:23;;;;;;;10.95;8.88;;;;;;;14.69;30.21;98873.96;1742769;81;21530;-69
2022/04/04 05:48:52;;;;;;;9.08;7.08;;;;;;;14.73;30.03;98871.70;1755347;81;20940;-64
2022/04/04 05:51:20;;;;;;;11.00;6.92;;;;;;;13.22;31.96;98877.58;1755017;81;21021;-67
2022/04/04 05:53:48;;;;;;;9.25;6.45;;;;;;;13.05;32.32;98889.59;1756342;81;21404;-72
2022/04/04 05:56:15;;;;;;;8.55;7.10;;;;;;;13.12;32.17;98885.95;1753936;81;21846;-65
2022/04/04 05:58:43;;;;;;;9.23;7.40;;;;;;;12.98;32.45;98881.58;1755522;80;21459;-70
2022/04/04 06:01:11;;;;;;;11.35;7.83;;;;;;;12.88;32.25;98885.10;1755452;81;20982;-69
2022/04/04 06:03:39;;;;;;;10.15;8.75;;;;;;;12.70;32.39;98884.81;1743560;81;20954;-68
2022/04/04 06:06:06;;;;;;;10.48;7.83;;;;;;;12.63;32.61;98886.63;1754578;81;20885;-67
2022/04/04 06:08:33;;;;;;;8.10;7.15;;;;;;;12.63;32.72;98888.80;1755906;81;21214;-67
2022/04/04 06:11:02;;;;;;;8.65;7.33;;;;;;;12.87;32.81;98889.64;1755602;81;20919;-67
2022/04/04 06:13:30;;;;;;;8.95;7.97;;;;;;;13.31;32.53;98881.19;1755518;80;21531;-63
2022/04/04 06:15:57;;;;;;;10.00;7.50;;;;;;;13.64;32.04;98885.24;1754907;81;21615;-65
2022/04/04 06:18:24;;;;;;;9.00;7.60;;;;;;;13.88;31.68;98885.98;1755109;81;21523;-66
2022/04/04 06:20:53;;;;;;;8.70;7.37;;;;;;;14.12;31.68;98891.23;1755448;81;21001;-65
2022/04/04 06:23:20;;;;;;;10.23;7.60;;;;;;;14.46;31.47;98891.02;1754357;81;20955;-65
2022/04/04 06:25:49;;;;;;;7.62;6.83;;;;;;;14.72;30.92;98886.11;1756243;81;20887;-64
2022/04/04 06:28:17;;;;;;;7.70;6.87;;;;;;;14.91;30.54;98896.45;1752853;81;21007;-65
2022/04/04 06:30:44;;;;;;;10.03;7.33;;;;;;;15.08;30.21;98892.24;1748438;81;21539;-67
2022/04/04 06:33:12;;;;;;;10.72;7.30;;;;;;;15.56;29.80;98896.16;1756475;81;21800;-64
2022/04/04 06:35:40;;;;;;;8.85;6.58;;;;;;;15.95;29.45;98891.02;1742283;81;20923;-64
2022/04/04 06:38:10;;;;;;;8.05;7.25;;;;;;;16.31;28.78;98891.11;1751730;81;21434;-65
2022/04/04 06:40:37;;;;;;;10.18;8.70;;;;;;;16.53;28.52;98886.16;1748592;81;21000;-65
2022/04/04 06:43:04;;;;;;;14.80;8.68;;;;;;;17.16;27.99;98892.03;1755712;81;20997;-68
2022/04/04 06:45:32;;;;;;;8.00;7.20;;;;;;;17.77;27.84;98888.63;1753694;81;22091;-65
2022/04/04 06:47:59;;;;;;;9.03;8.10;;;;;;;18.66;26.76;98887.54;1754882;81;21481;-67
2022/04/04 06:50:29;;;;;;;10.48;7.42;;;;;;;19.11;26.45;98887.13;1753532;81;21525;-63
2022/04/04 06:52:58;;;;;;;7.15;6.45;;;;;;;19.75;25.68;98881.61;1756413;81;21405;-63
2022/04/04 06:55:25;;;;;;;7.55;6.75;;;;;;;20.23;24.83;98884.07;1755903;81;20934;-65
2022/04/04 06:57:52;;;;;;;7.78;5.62;;;;;;;20.57;24.25;98891.59;1756349;81;21261;-67
2022/04/04 07:00:20;;;;;;;7.40;6.60;;;;;;;20.90;24.05;98883.42;1755544;81;21015;-66
2022/04/04 07:02:48;;;;;;;8.55;6.90;;;;;;;21.33;23.58;98884.48;1750719;80;20902;-66
2022/04/04 07:05:17;;;;;;;8.95;7.30;;;;;;;21.61;22.91;98885.63;1755782;80;20938;-66
2022/04/04 07:07:45;;;;;;;10.20;7.60;;;;;;;21.83;22.84;98886.89;1759135;80;20895;-65
2022/04/04 07:10:12;;;;;;;11.35;6.72;;;;;;;21.94;22.28;98882.72;1751635;81;21244;-65
2022/04/04 07:12:44;;;;;;;6.83;6.12;;;;;;;22.02;22.16;98889.02;1740489;81;20950;-68
2022/04/04 07:15:13;;;;;;;7.03;6.15;;;;;;;21.94;22.10;98881.36;1749803;81;21048;-64
2022/04/04 07:17:41;;;;;;;11.00;8.15;;;;;;;22.08;21.79;98881.19;1752081;80;21141;-67
2022/04/04 07:20:10;;;;;;;9.28;7.08;;;;;;;22.19;21.90;98882.09;1753384;80;20989;-69
2022/04/04 07:22:39;;;;;;;9.43;6.85;;;;;;;22.14;21.60;98880.70;1765211;80;21245;-66
2022/04/04 07:25:07;;;;;;;7.87;7.08;;;;;;;22.26;21.72;98888.13;1739766;80;21062;-69
2022/04/04 07:27:44;;;;;;;8.43;6.15;;;;;;;22.73;21.21;98889.55;1761042;80;20986;-67
2022/04/04 07:30:09;;;;;;;7.08;5.90;;;;;;;23.13;20.81;98882.12;1746346;81;20986;-69
2022/04/04 07:32:37;;;;;;;6.90;5.85;;;;;;;23.60;20.58;98883.38;1747870;81;20957;-66
2022/04/04 07:35:08;;;;;;;8.85;6.65;;;;;;;24.07;19.85;98883.97;1755797;80;21890;-68
2022/04/04 07:37:35;;;;;;;12.05;8.23;;;;;;;24.32;19.41;98880.47;1734122;82;21492;-66
2022/04/04 07:40:04;;;;;;;7.37;6.53;;;;;;;24.40;19.19;98879.35;1734630;82;21022;-68
2022/04/04 07:42:31;;;;;;;8.60;5.37;;;;;;;24.53;19.04;98879.36;1734801;82;21108;-68
2022/04/04 07:44:58;;;;;;;6.85;5.78;;;;;;;24.47;18.89;98878.55;1734298;82;21079;-66
2022/04/04 07:47:25;;;;;;;6.42;5.33;;;;;;;24.19;18.97;98882.38;1734281;82;21314;-68
2022/04/04 07:49:52;;;;;;;7.40;6.17;;;;;;;23.56;19.00;98885.83;1735150;82;21573;-67
2022/04/04 07:52:20;;;;;;;8.30;6.55;;;;;;;23.14;19.22;98879.69;1734136;82;21372;-66
2022/04/04 07:54:47;;;;;;;6.47;5.78;;;;;;;22.29;19.92;98886.78;1734433;82;21460;-67
2022/04/04 07:57:15;;;;;;;7.28;6.47;;;;;;;21.91;20.37;98882.40;1733353;82;20847;-67
2022/04/04 07:59:43;;;;;;;6.30;5.67;;;;;;;21.82;20.49;98883.37;1729591;82;21215;-67
2022/04/04 08:02:10;;;;;;;7.87;5.62;;;;;;;21.79;20.68;98885.79;1734617;82;21024;-66
2022/04/04 08:04:38;;;;;;;8.10;6.42;;;;;;;21.92;20.19;98890.28;1729201;82;20994;-65
2022/04/04 08:07:06;;;;;;;8.15;6.58;;;;;;;21.73;20.41;98888.98;1734304;82;21500;-65
2022/04/04 08:09:34;;;;;;;9.68;6.12;;;;;;;21.72;20.31;98883.27;1735274;82;20974;-67
2022/04/04 08:12:02;;;;;;;7.72;5.75;;;;;;;22.11;20.50;98897.46;1733950;82;22232;-68
2022/04/04 08:14:31;;;;;;;7.67;5.45;;;;;;;22.83;20.03;98892.30;1734402;82;21065;-69
2022/04/04 08:17:00;;;;;;;7.10;5.90;;;;;;;22.97;19.83;98889.38;1735125;82;21001;-69
2022/04/04 08:19:28;;;;;;;8.13;6.33;;;;;;;23.68;19.63;98895.06;1732227;82;21042;-66
2022/04/04 08:21:56;;;;;;;6.97;5.78;;;;;;;24.31;19.17;98886.44;1734085;82;20926;-67
2022/04/04 08:24:24;;;;;;;7.03;5.47;;;;;;;24.38;18.79;98885.61;1732594;82;21309;-64
2022/04/04 08:26:51;;;;;;;5.70;4.78;;;;;;;24.64;18.50;98882.88;1733548;82;20899;-64
2022/04/04 08:29:19;;;;;;;6.30;5.42;;;;;;;24.43;18.17;98884.25;1733232;82;20990;-65
2022/04/04 08:31:46;;;;;;;6.12;5.03;;;;;;;23.82;18.62;98879.89;1733806;82;20929;-64
2022/04/04 08:34:13;;;;;;;6.28;5.15;;;;;;;23.35;18.88;98890.36;1733682;82;20977;-63
2022/04/04 08:36:41;;;;;;;7.08;5.78;;;;;;;22.91;19.10;98878.78;1716806;82;21268;-67
2022/04/04 08:39:08;;;;;;;7.20;5.72;;;;;;;22.81;19.21;98880.09;1727055;82;20923;-67
2022/04/04 08:41:37;;;;;;;7.10;4.92;;;;;;;22.80;19.48;98881.16;1725490;82;20974;-65
2022/04/04 08:44:05;;;;;;;6.70;3.95;;;;;;;22.62;19.63;98876.97;1726602;82;21039;-65
2022/04/04 08:46:35;;;;;;;5.03;3.90;;;;;;;22.37;19.51;98876.82;1727063;82;21054;-70
2022/04/04 08:49:04;;;;;;;4.20;3.40;;;;;;;23.55;18.73;98864.36;1726912;82;21448;-67
2022/04/04 08:51:32;;;;;;;6.87;3.60;;;;;;;23.75;18.14;98877.98;1727190;82;20969;-67
2022/04/04 08:54:00;;;;;;;6.20;3.20;;;;;;;23.76;18.20;98872.81;1727137;82;21429;-67
2022/04/04 08:56:27;;;;;;;5.58;3.62;;;;;;;23.94;18.05;98866.31;1725547;83;20938;-68
2022/04/04 08:58:55;;;;;;;3.90;2.92;;;;;;;23.97;17.96;98866.31;1726223;83;20979;-69
2022/04/04 09:01:24;;;;;;;3.72;3.30;;;;;;;24.23;17.39;98860.35;1726250;83;21277;-64
2022/04/04 09:04:02;;;;;;;6.53;3.10;;;;;;;24.00;17.39;98858.98;1725564;82;21007;-64
2022/04/04 09:06:31;;;;;;;4.00;3.10;;;;;;;23.98;17.32;98855.16;1712170;82;21072;-65
2022/04/04 09:08:58;;;;;;;8.23;3.58;;;;;;;24.05;17.21;98854.09;1727814;82;20900;-65
2022/04/04 09:11:26;;;;;;;7.37;4.30;;;;;;;23.80;17.01;98858.41;1727475;82;20958;-67
2022/04/04 09:14:10;;;;;;;8.78;3.90;;;;;;;23.66;17.38;98863.30;1727415;82;21197;-68
2022/04/04 09:16:36;;;;;;;4.17;3.75;;;;;;;24.67;16.87;98861.90;1726630;82;21002;-66
2022/04/04 09:19:03;;;;;;;7.25;4.53;;;;;;;25.38;16.05;98849.67;1727881;82;20998;-66
2022/04/04 09:21:33;;;;;;;4.53;4.12;;;;;;;25.64;15.65;98836.73;1728031;82;20997;-64
2022/04/04 09:24:07;;;;;;;4.15;3.50;;;;;;;25.74;15.17;98840.73;1727542;82;21516;-63
2022/04/04 09:26:39;;;;;;;4.03;3.37;;;;;;;25.79;15.30;98843.42;1727535;82;21159;-66
2022/04/04 09:29:19;;;;;;;7.97;4.58;;;;;;;26.16;14.73;98832.79;1727810;82;20982;-67
2022/04/04 09:32:02;;;;;;;6.53;3.77;;;;;;;25.79;14.77;98832.52;1727867;82;21461;-67
2022/04/04 09:34:28;;;;;;;15.05;3.75;;;;;;;26.27;14.60;98826.70;1728033;82;20931;-64
2022/04/04 09:36:56;;;;;;;4.67;2.90;;;;;;;26.59;14.01;98822.00;1750944;81;20951;-65
2022/04/04 09:39:25;;;;;;;6.60;2.98;;;;;;;26.59;14.28;98821.45;1755194;81;21200;-64
2022/04/04 09:41:52;;;;;;;4.12;3.42;;;;;;;27.12;14.20;98815.91;1756337;81;20985;-66
2022/04/04 09:44:25;;;;;;;7.50;3.45;;;;;;;25.86;14.40;98819.95;1755234;81;20918;-65
2022/04/04 09:46:50;;;;;;;3.77;3.27;;;;;;;25.82;13.82;98818.34;1755379;81;20945;-66
2022/04/04 09:49:20;;;;;;;5.95;3.77;;;;;;;24.62;14.45;98821.13;1755290;81;20918;-64
2022/04/04 09:51:50;;;;;;;6.75;3.62;;;;;;;23.37;15.48;98825.51;1754979;81;20914;-66
2022/04/04 09:54:23;;;;;;;5.25;3.62;;;;;;;22.49;16.21;98822.70;1755798;81;20951;-66
2022/04/04 09:57:10;;;;;;;4.92;3.80;;;;;;;21.58;16.71;98823.89;1756130;81;21001;-68
2022/04/04 09:59:37;;;;;;;5.78;3.45;;;;;;;20.72;17.52;98820.22;1742781;81;20962;-67
2022/04/04 10:02:05;;;;;;;7.47;3.20;;;;;;;19.95;17.78;98822.56;1756420;81;20910;-66
2022/04/04 10:04:33;;;;;;;7.30;4.00;;;;;;;19.34;18.06;98828.27;1758685;81;21232;-66
2022/04/04 10:07:04;;;;;;;4.83;4.22;;;;;;;18.85;18.43;98823.55;1759249;81;20919;-66
2022/04/04 10:09:31;;;;;;;8.20;3.92;;;;;;;18.44;18.83;98822.66;1756669;81;21043;-65
2022/04/04 10:11:59;;;;;;;5.67;3.20;;;;;;;18.10;19.26;98822.66;1755587;81;21461;-64
2022/04/04 10:14:26;;;;;;;5.12;3.10;;;;;;;17.85;19.63;98824.24;1756567;81;20933;-65
2022/04/04 10:16:53;;;;;;;4.60;3.52;;;;;;;17.68;19.53;98821.92;1755554;81;22204;-65
2022/04/04 10:19:24;;;;;;;5.85;4.03;;;;;;;17.49;19.81;98822.52;1756755;81;21465;-63
2022/04/04 10:21:50;;;;;;;4.08;3.65;;;;;;;17.24;19.67;98824.02;1756351;81;21013;-63
2022/04/04 10:24:19;;;;;;;4.25;3.37;;;;;;;17.04;19.73;98828.84;1756632;81;20906;-66
2022/04/04 10:26:50;;;;;;;5.28;3.87;;;;;;;16.90;20.04;98826.55;1756384;81;20918;-67
2022/04/04 10:29:19;;;;;;;4.83;3.33;;;;;;;16.92;20.00;98826.61;1755960;81;21156;-65
2022/04/04 10:31:55;;;;;;;5.05;3.22;;;;;;;16.91;20.31;98828.20;1756229;81;21405;-65
2022/04/04 10:34:24;;;;;;;5.45;3.15;;;;;;;17.04;20.47;98831.53;1756710;81;23412;-67
2022/04/04 10:37:03;;;;;;;3.90;3.45;;;;;;;16.97;20.05;98829.44;1761957;80;21025;-65
2022/04/04 10:39:44;;;;;;;7.28;5.08;;;;;;;16.83;20.10;98825.81;1764666;80;20919;-64
2022/04/04 10:42:33;;;;;;;5.70;4.80;;;;;;;16.79;20.17;98825.44;1764592;80;22540;-65
2022/04/04 10:45:13;;;;;;;8.43;4.53;;;;;;;16.81;20.07;98818.52;1757024;80;20917;-64
2022/04/04 10:47:46;;;;;;;7.40;4.20;;;;;;;16.76;20.29;98815.69;1752544;80;20990;-65
2022/04/04 10:50:32;;;;;;;4.17;3.58;;;;;;;16.93;20.25;98822.06;1727385;83;21544;-65
2022/04/04 10:53:02;;;;;;;4.30;3.50;;;;;;;16.90;19.76;98825.20;1727511;83;20903;-64
2022/04/04 10:55:38;;;;;;;6.35;4.28;;;;;;;16.62;19.52;98820.39;1708865;83;21143;-66
2022/04/04 10:58:20;;;;;;;4.65;3.37;;;;;;;16.38;19.59;98822.58;1723481;83;20959;-65
2022/04/04 11:01:04;;;;;;;5.53;4.12;;;;;;;16.15;19.65;98817.88;1699582;84;20971;-65
2022/04/04 11:03:39;;;;;;;4.53;3.30;;;;;;;16.12;19.73;98814.80;1726581;83;21017;-66
2022/04/04 11:09:14;;;;;;;5.30;3.47;;;;;;;16.17;19.63;98808.25;1708841;84;21320;-64
2022/04/04 11:12:13;;;;;;;3.92;3.50;;;;;;;15.88;20.15;98802.55;1727750;83;21017;-65
2022/04/04 11:14:42;;;;;;;4.12;3.65;;;;;;;15.90;20.50;98800.45;1727522;83;24996;-67
2022/04/04 11:17:18;;;;;;;6.22;4.05;;;;;;;15.90;20.84;98801.00;1708826;84;21053;-66
2022/04/04 11:20:31;;;;;;;4.75;4.05;;;;;;;15.89;20.92;98789.95;1717147;83;21476;-66
2022/04/04 11:22:55;;;;;;;5.15;3.95;;;;;;;15.87;20.44;98788.85;1707812;83;21168;-67
2022/04/04 11:25:27;;;;;;;5.45;4.53;;;;;;;15.76;20.39;98796.78;1727526;83;20963;-65
2022/04/04 11:27:52;;;;;;;9.60;4.83;;;;;;;15.66;20.69;98796.45;1727668;83;20974;-66
2022/04/04 11:30:25;;;;;;;5.85;5.15;;;;;;;15.65;20.81;98795.63;1708558;84;20932;-68
2022/04/04 11:32:54;;;;;;;8.13;5.12;;;;;;;15.59;21.02;98794.36;1728201;83;20985;-66
2022/04/04 11:35:25;;;;;;;6.28;5.05;;;;;;;15.70;21.16;98792.28;1727692;83;21225;-67
2022/04/04 11:38:01;;;;;;;7.60;5.75;;;;;;;15.75;21.13;98779.86;1706448;83;20991;-64
2022/04/04 11:40:34;;;;;;;5.45;4.70;;;;;;;15.69;21.20;98783.45;1755988;81;20910;-67
2022/04/04 11:43:02;;;;;;;6.97;4.90;;;;;;;15.64;21.49;98791.84;1755415;81;21476;-63
2022/04/04 11:45:39;;;;;;;7.10;5.70;;;;;;;15.62;21.66;98788.02;1755959;81;21421;-64
2022/04/04 11:48:16;;;;;;;5.40;4.40;;;;;;;15.49;21.81;98798.05;1756562;81;21525;-65
2022/04/04 11:50:42;;;;;;;;;;;;;;;15.38;21.29;98800.34;1747016;81;20946;-64
2022/04/04 11:53:16;;;;;;;5.28;3.70;;;;;;;15.20;21.08;98794.90;1719681;83;20156;-67
2022/04/04 11:55:46;;;;;;;6.17;3.65;;;;;;;15.09;21.11;98784.89;1744837;81;20950;-65